RYR6AJ LHBP-EPMO
Flight info
| Callsign | RYR6AJ |
|---|---|
| Flight time | 0h 56m |
| Altitude | 35000 |
| Route | LITKU DCT KELEL DCT LOGDA |
| Aircraft | B738/M-SDE2E3FGHIRWXY/LB1 |
Departure
| Time | 2026-04-20 18:46 |
|---|---|
| Airport | Budapest Liszt Ferenc International Airport (LHBP) |
Arrival
| Time | 2026-04-20 19:43 |
|---|---|
| Airport | Warsaw Modlin Airport (EPMO) |
| Time | Latitude | Longitude | Altitude | Speed | Heading |
|---|---|---|---|---|---|
| 2026-04-20 18:24 | 47.43536 | 19.26433 | 456 ft | 0 kts | 222° |
| 2026-04-20 18:33 | 47.43545 | 19.26445 | 457 ft | 3 kts | 223° |
| 2026-04-20 18:33 | 47.43560 | 19.26466 | 456 ft | 3 kts | 223° |
| 2026-04-20 18:33 | 47.43570 | 19.26481 | 456 ft | 1 kts | 245° |
| 2026-04-20 18:33 | 47.43572 | 19.26493 | 453 ft | 1 kts | 291° |
| 2026-04-20 18:34 | 47.43568 | 19.26504 | 454 ft | 1 kts | 306° |
| 2026-04-20 18:34 | 47.43563 | 19.26514 | 455 ft | 1 kts | 311° |
| 2026-04-20 18:34 | 47.43562 | 19.26516 | 455 ft | 0 kts | 312° |
| 2026-04-20 18:35 | 47.43564 | 19.26513 | 455 ft | 1 kts | 312° |
| 2026-04-20 18:36 | 47.43579 | 19.26489 | 454 ft | 5 kts | 312° |
| 2026-04-20 18:36 | 47.43613 | 19.26433 | 457 ft | 9 kts | 312° |
| 2026-04-20 18:36 | 47.43658 | 19.26358 | 457 ft | 10 kts | 310° |
| 2026-04-20 18:36 | 47.43677 | 19.26265 | 456 ft | 10 kts | 268° |
| 2026-04-20 18:37 | 47.43675 | 19.26168 | 456 ft | 9 kts | 268° |
| 2026-04-20 18:37 | 47.43679 | 19.26075 | 456 ft | 9 kts | 287° |
| 2026-04-20 18:37 | 47.43715 | 19.26001 | 456 ft | 9 kts | 313° |
| 2026-04-20 18:37 | 47.43732 | 19.25920 | 456 ft | 9 kts | 255° |
| 2026-04-20 18:38 | 47.43693 | 19.25857 | 456 ft | 8 kts | 221° |
| 2026-04-20 18:38 | 47.43642 | 19.25790 | 456 ft | 12 kts | 222° |
| 2026-04-20 18:38 | 47.43567 | 19.25689 | 456 ft | 17 kts | 222° |
| 2026-04-20 18:38 | 47.43479 | 19.25572 | 456 ft | 17 kts | 222° |
| 2026-04-20 18:39 | 47.43393 | 19.25459 | 456 ft | 16 kts | 222° |
| 2026-04-20 18:39 | 47.43322 | 19.25363 | 455 ft | 10 kts | 223° |
| 2026-04-20 18:39 | 47.43275 | 19.25297 | 456 ft | 9 kts | 223° |
| 2026-04-20 18:39 | 47.43229 | 19.25235 | 456 ft | 9 kts | 222° |
| 2026-04-20 18:40 | 47.43193 | 19.25188 | 455 ft | 0 kts | 222° |
| 2026-04-20 18:42 | 47.43191 | 19.25185 | 456 ft | 1 kts | 222° |
| 2026-04-20 18:42 | 47.43174 | 19.25162 | 456 ft | 5 kts | 222° |
| 2026-04-20 18:42 | 47.43152 | 19.25133 | 455 ft | 0 kts | 222° |
| 2026-04-20 18:44 | 47.43145 | 19.25123 | 456 ft | 3 kts | 222° |
| 2026-04-20 18:44 | 47.43116 | 19.25083 | 456 ft | 8 kts | 222° |
| 2026-04-20 18:45 | 47.43078 | 19.25010 | 456 ft | 9 kts | 257° |
| 2026-04-20 18:45 | 47.43091 | 19.24955 | 456 ft | 1 kts | 308° |
| 2026-04-20 18:45 | 47.43096 | 19.24946 | 456 ft | 3 kts | 308° |
| 2026-04-20 18:45 | 47.43221 | 19.24736 | 455 ft | 62 kts | 312° |
| 2026-04-20 18:46 | 47.43671 | 19.24019 | 451 ft | 126 kts | 313° |
| 2026-04-20 18:46 | 47.44351 | 19.22936 | 688 ft | 153 kts | 313° |
| 2026-04-20 18:46 | 47.45087 | 19.21789 | 1444 ft | 155 kts | 314° |
| 2026-04-20 18:46 | 47.45832 | 19.20657 | 2172 ft | 152 kts | 314° |
| 2026-04-20 18:47 | 47.46554 | 19.19514 | 2854 ft | 153 kts | 312° |
| 2026-04-20 18:47 | 47.47268 | 19.18331 | 3470 ft | 155 kts | 313° |
| 2026-04-20 18:47 | 47.47999 | 19.17123 | 3997 ft | 161 kts | 316° |
| 2026-04-20 18:47 | 47.48865 | 19.15996 | 4423 ft | 175 kts | 321° |
| 2026-04-20 18:48 | 47.49845 | 19.14792 | 4708 ft | 191 kts | 321° |
| 2026-04-20 18:48 | 47.50908 | 19.13492 | 4967 ft | 205 kts | 321° |
| 2026-04-20 18:48 | 47.52050 | 19.12095 | 5221 ft | 220 kts | 321° |
| 2026-04-20 18:48 | 47.53286 | 19.10584 | 5478 ft | 241 kts | 321° |
| 2026-04-20 18:49 | 47.54610 | 19.08962 | 6024 ft | 251 kts | 321° |
| 2026-04-20 18:49 | 47.55963 | 19.07302 | 6769 ft | 253 kts | 320° |
| 2026-04-20 18:49 | 47.57354 | 19.05700 | 7569 ft | 254 kts | 330° |
| 2026-04-20 18:49 | 47.59090 | 19.05155 | 8348 ft | 263 kts | 2° |
| 2026-04-20 18:50 | 47.60865 | 19.05847 | 9114 ft | 273 kts | 18° |
| 2026-04-20 18:50 | 47.62590 | 19.07162 | 9855 ft | 282 kts | 24° |
| 2026-04-20 18:50 | 47.64309 | 19.08648 | 10397 ft | 295 kts | 25° |
| 2026-04-20 18:50 | 47.66148 | 19.10268 | 10582 ft | 319 kts | 26° |
| 2026-04-20 18:51 | 47.68097 | 19.11990 | 11068 ft | 330 kts | 26° |
| 2026-04-20 18:51 | 47.70087 | 19.13742 | 11812 ft | 334 kts | 26° |
| 2026-04-20 18:51 | 47.72098 | 19.15503 | 12604 ft | 337 kts | 26° |
| 2026-04-20 18:51 | 47.74145 | 19.17286 | 13345 ft | 342 kts | 26° |
| 2026-04-20 18:52 | 47.76215 | 19.19081 | 14071 ft | 347 kts | 26° |
| 2026-04-20 18:52 | 47.78316 | 19.20898 | 14799 ft | 351 kts | 26° |
| 2026-04-20 18:52 | 47.80440 | 19.22734 | 15536 ft | 355 kts | 26° |
| 2026-04-20 18:52 | 47.82559 | 19.24565 | 16281 ft | 359 kts | 26° |
| 2026-04-20 18:53 | 47.84735 | 19.26446 | 17005 ft | 363 kts | 26° |
| 2026-04-20 18:53 | 47.86934 | 19.28347 | 17727 ft | 368 kts | 26° |
| 2026-04-20 18:53 | 47.89163 | 19.30276 | 18438 ft | 372 kts | 26° |
| 2026-04-20 18:53 | 47.91415 | 19.32228 | 19070 ft | 376 kts | 26° |
| 2026-04-20 18:54 | 47.93691 | 19.34202 | 19692 ft | 380 kts | 26° |
| 2026-04-20 18:54 | 47.95987 | 19.36195 | 20301 ft | 384 kts | 26° |
| 2026-04-20 18:54 | 47.98308 | 19.38212 | 20917 ft | 388 kts | 26° |
| 2026-04-20 18:54 | 48.00639 | 19.40241 | 21516 ft | 392 kts | 26° |
| 2026-04-20 18:55 | 48.02983 | 19.42281 | 22094 ft | 396 kts | 26° |
| 2026-04-20 18:55 | 48.05378 | 19.44370 | 22678 ft | 400 kts | 26° |
| 2026-04-20 18:55 | 48.07793 | 19.46478 | 23270 ft | 404 kts | 26° |
| 2026-04-20 18:55 | 48.10229 | 19.48606 | 23790 ft | 407 kts | 26° |
| 2026-04-20 18:56 | 48.12690 | 19.50761 | 24281 ft | 410 kts | 26° |
| 2026-04-20 18:56 | 48.15158 | 19.52923 | 24742 ft | 413 kts | 26° |
| 2026-04-20 18:56 | 48.17658 | 19.55115 | 25207 ft | 417 kts | 26° |
| 2026-04-20 18:56 | 48.20144 | 19.57297 | 25647 ft | 420 kts | 26° |
| 2026-04-20 18:57 | 48.22682 | 19.59496 | 26081 ft | 422 kts | 23° |
| 2026-04-20 18:57 | 48.25354 | 19.61286 | 26506 ft | 420 kts | 15° |
| 2026-04-20 18:57 | 48.28116 | 19.62738 | 26965 ft | 421 kts | 14° |
| 2026-04-20 18:57 | 48.30905 | 19.64135 | 27378 ft | 424 kts | 14° |
| 2026-04-20 18:58 | 48.33725 | 19.65540 | 27790 ft | 427 kts | 14° |
| 2026-04-20 18:58 | 48.36550 | 19.66962 | 28201 ft | 430 kts | 14° |
| 2026-04-20 18:58 | 48.39395 | 19.68415 | 28597 ft | 433 kts | 14° |
| 2026-04-20 18:58 | 48.42255 | 19.69894 | 28979 ft | 436 kts | 14° |
| 2026-04-20 18:59 | 48.45130 | 19.71393 | 29363 ft | 438 kts | 14° |
| 2026-04-20 18:59 | 48.48016 | 19.72906 | 29828 ft | 439 kts | 14° |
| 2026-04-20 18:59 | 48.50895 | 19.74421 | 30342 ft | 437 kts | 15° |
| 2026-04-20 18:59 | 48.53758 | 19.75931 | 30779 ft | 436 kts | 15° |
| 2026-04-20 19:00 | 48.56589 | 19.77426 | 31166 ft | 436 kts | 15° |
| 2026-04-20 19:00 | 48.59454 | 19.78938 | 31562 ft | 436 kts | 15° |
| 2026-04-20 19:00 | 48.62309 | 19.80447 | 31994 ft | 434 kts | 15° |
| 2026-04-20 19:00 | 48.65163 | 19.81957 | 32398 ft | 434 kts | 15° |
| 2026-04-20 19:01 | 48.68018 | 19.83468 | 32763 ft | 434 kts | 15° |
| 2026-04-20 19:01 | 48.70873 | 19.84976 | 33106 ft | 434 kts | 15° |
| 2026-04-20 19:01 | 48.73728 | 19.86489 | 33511 ft | 433 kts | 15° |
| 2026-04-20 19:01 | 48.76547 | 19.87988 | 33936 ft | 432 kts | 15° |
| 2026-04-20 19:02 | 48.79384 | 19.89500 | 34262 ft | 432 kts | 15° |
| 2026-04-20 19:02 | 48.82223 | 19.91014 | 34526 ft | 433 kts | 15° |
| 2026-04-20 19:02 | 48.85069 | 19.92532 | 34802 ft | 433 kts | 15° |
| 2026-04-20 19:02 | 48.87912 | 19.94049 | 34989 ft | 435 kts | 15° |
| 2026-04-20 19:03 | 48.93666 | 19.97124 | 34988 ft | 438 kts | 16° |
| 2026-04-20 19:03 | 48.99336 | 20.00168 | 34981 ft | 430 kts | 16° |
| 2026-04-20 19:04 | 49.04971 | 20.03198 | 34977 ft | 431 kts | 16° |
| 2026-04-20 19:04 | 49.10635 | 20.06247 | 34977 ft | 431 kts | 16° |
| 2026-04-20 19:05 | 49.16267 | 20.09288 | 34986 ft | 432 kts | 16° |
| 2026-04-20 19:05 | 49.21950 | 20.12365 | 34984 ft | 433 kts | 17° |
| 2026-04-20 19:06 | 49.27640 | 20.15450 | 35019 ft | 434 kts | 17° |
| 2026-04-20 19:06 | 49.33382 | 20.18195 | 35014 ft | 430 kts | 7° |
| 2026-04-20 19:07 | 49.39285 | 20.19689 | 35025 ft | 430 kts | 6° |
| 2026-04-20 19:07 | 49.45165 | 20.21061 | 35032 ft | 429 kts | 6° |
| 2026-04-20 19:08 | 49.54019 | 20.23241 | 35026 ft | 429 kts | 6° |
| 2026-04-20 19:09 | 49.59918 | 20.24741 | 35039 ft | 429 kts | 7° |
| 2026-04-20 19:09 | 49.65822 | 20.26255 | 35034 ft | 429 kts | 7° |
| 2026-04-20 19:10 | 49.71680 | 20.27760 | 35035 ft | 429 kts | 7° |
| 2026-04-20 19:10 | 49.77573 | 20.29276 | 35056 ft | 429 kts | 7° |
| 2026-04-20 19:11 | 49.83457 | 20.30794 | 35046 ft | 429 kts | 7° |
| 2026-04-20 19:11 | 49.89349 | 20.32317 | 35040 ft | 429 kts | 7° |
| 2026-04-20 19:12 | 49.95230 | 20.33841 | 35054 ft | 428 kts | 7° |
| 2026-04-20 19:12 | 50.01088 | 20.35363 | 35051 ft | 428 kts | 7° |
| 2026-04-20 19:13 | 50.06930 | 20.36884 | 35048 ft | 427 kts | 7° |
| 2026-04-20 19:13 | 50.12799 | 20.38417 | 35049 ft | 427 kts | 7° |
| 2026-04-20 19:14 | 50.18655 | 20.39949 | 35056 ft | 427 kts | 7° |
| 2026-04-20 19:14 | 50.24512 | 20.41486 | 35060 ft | 426 kts | 8° |
| 2026-04-20 19:15 | 50.30378 | 20.43029 | 35061 ft | 426 kts | 8° |
| 2026-04-20 19:15 | 50.36201 | 20.44564 | 35057 ft | 426 kts | 8° |
| 2026-04-20 19:16 | 50.42090 | 20.46120 | 34695 ft | 429 kts | 8° |
| 2026-04-20 19:16 | 50.44035 | 20.46636 | 34550 ft | 427 kts | 8° |
| 2026-04-20 19:16 | 50.47940 | 20.47672 | 34253 ft | 425 kts | 8° |
| 2026-04-20 19:16 | 50.50858 | 20.48447 | 34023 ft | 424 kts | 8° |
| 2026-04-20 19:17 | 50.53770 | 20.49221 | 33749 ft | 424 kts | 8° |
| 2026-04-20 19:17 | 50.55698 | 20.49734 | 33575 ft | 424 kts | 8° |
| 2026-04-20 19:17 | 50.59550 | 20.50760 | 33215 ft | 423 kts | 8° |
| 2026-04-20 19:17 | 50.62455 | 20.51535 | 32949 ft | 423 kts | 8° |
| 2026-04-20 19:18 | 50.65355 | 20.52310 | 32676 ft | 423 kts | 8° |
| 2026-04-20 19:18 | 50.67315 | 20.52834 | 32238 ft | 423 kts | 8° |
| 2026-04-20 19:18 | 50.70177 | 20.53600 | 31697 ft | 421 kts | 8° |
| 2026-04-20 19:18 | 50.73068 | 20.54372 | 31068 ft | 422 kts | 9° |
| 2026-04-20 19:19 | 50.75973 | 20.55151 | 30439 ft | 423 kts | 9° |
| 2026-04-20 19:19 | 50.78872 | 20.55929 | 29797 ft | 422 kts | 9° |
| 2026-04-20 19:19 | 50.81757 | 20.56649 | 29216 ft | 418 kts | 5° |
| 2026-04-20 19:19 | 50.84653 | 20.56638 | 28567 ft | 415 kts | 355° |
| 2026-04-20 19:20 | 50.87528 | 20.56259 | 27994 ft | 412 kts | 355° |
| 2026-04-20 19:20 | 50.90373 | 20.55879 | 27433 ft | 409 kts | 355° |
| 2026-04-20 19:20 | 50.93199 | 20.55511 | 26854 ft | 406 kts | 355° |
| 2026-04-20 19:20 | 50.95982 | 20.55160 | 26363 ft | 402 kts | 355° |
| 2026-04-20 19:21 | 50.98757 | 20.54819 | 25904 ft | 398 kts | 355° |
| 2026-04-20 19:21 | 51.01503 | 20.54488 | 25380 ft | 395 kts | 355° |
| 2026-04-20 19:21 | 51.04236 | 20.54162 | 24850 ft | 393 kts | 355° |
| 2026-04-20 19:21 | 51.06962 | 20.53839 | 24348 ft | 391 kts | 355° |
| 2026-04-20 19:22 | 51.09669 | 20.53519 | 23871 ft | 388 kts | 355° |
| 2026-04-20 19:22 | 51.12355 | 20.53200 | 23347 ft | 386 kts | 355° |
| 2026-04-20 19:22 | 51.15023 | 20.52884 | 22822 ft | 382 kts | 355° |
| 2026-04-20 19:22 | 51.17669 | 20.52570 | 22335 ft | 378 kts | 355° |
| 2026-04-20 19:23 | 51.20280 | 20.52260 | 21890 ft | 373 kts | 355° |
| 2026-04-20 19:23 | 51.22817 | 20.51958 | 21480 ft | 368 kts | 355° |
| 2026-04-20 19:23 | 51.25360 | 20.51655 | 20974 ft | 366 kts | 355° |
| 2026-04-20 19:23 | 51.27895 | 20.51352 | 20464 ft | 364 kts | 355° |
| 2026-04-20 19:24 | 51.30414 | 20.51051 | 19995 ft | 361 kts | 355° |
| 2026-04-20 19:24 | 51.32911 | 20.50752 | 19539 ft | 358 kts | 355° |
| 2026-04-20 19:24 | 51.35389 | 20.50455 | 19085 ft | 356 kts | 355° |
| 2026-04-20 19:24 | 51.37847 | 20.50160 | 18643 ft | 353 kts | 355° |
| 2026-04-20 19:25 | 51.40288 | 20.49868 | 18180 ft | 351 kts | 355° |
| 2026-04-20 19:25 | 51.42724 | 20.49573 | 17676 ft | 348 kts | 355° |
| 2026-04-20 19:25 | 51.45134 | 20.49284 | 17205 ft | 346 kts | 355° |
| 2026-04-20 19:25 | 51.47491 | 20.49001 | 16819 ft | 340 kts | 355° |
| 2026-04-20 19:26 | 51.49851 | 20.48717 | 16336 ft | 339 kts | 356° |
| 2026-04-20 19:26 | 51.52194 | 20.48435 | 15858 ft | 337 kts | 356° |
| 2026-04-20 19:26 | 51.54530 | 20.48153 | 15387 ft | 335 kts | 356° |
| 2026-04-20 19:26 | 51.56849 | 20.47873 | 14960 ft | 332 kts | 356° |
| 2026-04-20 19:27 | 51.59143 | 20.47595 | 14543 ft | 329 kts | 356° |
| 2026-04-20 19:27 | 51.61398 | 20.47322 | 14121 ft | 327 kts | 356° |
| 2026-04-20 19:27 | 51.63662 | 20.47048 | 13644 ft | 326 kts | 356° |
| 2026-04-20 19:27 | 51.65921 | 20.46773 | 13164 ft | 324 kts | 356° |
| 2026-04-20 19:28 | 51.68167 | 20.46500 | 12732 ft | 320 kts | 356° |
| 2026-04-20 19:28 | 51.70358 | 20.46233 | 12300 ft | 312 kts | 356° |
| 2026-04-20 19:28 | 51.72496 | 20.45972 | 11871 ft | 305 kts | 357° |
| 2026-04-20 19:28 | 51.74594 | 20.45715 | 11450 ft | 299 kts | 357° |
| 2026-04-20 19:29 | 51.76650 | 20.45464 | 11042 ft | 294 kts | 357° |
| 2026-04-20 19:29 | 51.78674 | 20.45217 | 10660 ft | 288 kts | 357° |
| 2026-04-20 19:29 | 51.80662 | 20.44974 | 10387 ft | 284 kts | 358° |
| 2026-04-20 19:29 | 51.82617 | 20.44735 | 10134 ft | 280 kts | 358° |
| 2026-04-20 19:30 | 51.84554 | 20.44499 | 9812 ft | 279 kts | 358° |
| 2026-04-20 19:30 | 51.86485 | 20.44263 | 9465 ft | 278 kts | 358° |
| 2026-04-20 19:30 | 51.88404 | 20.44028 | 9131 ft | 276 kts | 358° |
| 2026-04-20 19:30 | 51.90320 | 20.43793 | 8783 ft | 276 kts | 358° |
| 2026-04-20 19:31 | 51.92228 | 20.43557 | 8471 ft | 274 kts | 358° |
| 2026-04-20 19:31 | 51.94101 | 20.43327 | 8170 ft | 272 kts | 358° |
| 2026-04-20 19:31 | 51.95986 | 20.43096 | 7910 ft | 271 kts | 358° |
| 2026-04-20 19:31 | 51.97862 | 20.42866 | 7651 ft | 270 kts | 358° |
| 2026-04-20 19:32 | 51.99735 | 20.42636 | 7392 ft | 269 kts | 358° |
| 2026-04-20 19:32 | 52.01584 | 20.42409 | 7142 ft | 268 kts | 358° |
| 2026-04-20 19:32 | 52.03446 | 20.42179 | 6884 ft | 267 kts | 358° |
| 2026-04-20 19:32 | 52.05302 | 20.41950 | 6641 ft | 267 kts | 358° |
| 2026-04-20 19:33 | 52.07156 | 20.41721 | 6383 ft | 266 kts | 358° |
| 2026-04-20 19:33 | 52.09000 | 20.41493 | 6116 ft | 265 kts | 358° |
| 2026-04-20 19:33 | 52.10836 | 20.41265 | 5850 ft | 264 kts | 358° |
| 2026-04-20 19:33 | 52.12645 | 20.41041 | 5591 ft | 264 kts | 358° |
| 2026-04-20 19:34 | 52.14475 | 20.40812 | 5329 ft | 263 kts | 359° |
| 2026-04-20 19:34 | 52.16285 | 20.40587 | 5066 ft | 259 kts | 359° |
| 2026-04-20 19:34 | 52.18075 | 20.40365 | 4804 ft | 256 kts | 359° |
| 2026-04-20 19:34 | 52.19848 | 20.40145 | 4535 ft | 254 kts | 359° |
| 2026-04-20 19:35 | 52.21607 | 20.39925 | 4286 ft | 251 kts | 360° |
| 2026-04-20 19:35 | 52.23329 | 20.39707 | 4067 ft | 247 kts | 360° |
| 2026-04-20 19:35 | 52.25032 | 20.39494 | 3853 ft | 243 kts | 360° |
| 2026-04-20 19:35 | 52.26708 | 20.39287 | 3641 ft | 240 kts | 360° |
| 2026-04-20 19:36 | 52.28361 | 20.39082 | 3437 ft | 236 kts | 0° |
| 2026-04-20 19:36 | 52.29989 | 20.38880 | 3226 ft | 233 kts | 360° |
| 2026-04-20 19:36 | 52.31577 | 20.38682 | 3038 ft | 228 kts | 360° |
| 2026-04-20 19:36 | 52.33148 | 20.38486 | 2987 ft | 226 kts | 360° |
| 2026-04-20 19:37 | 52.34710 | 20.38291 | 2981 ft | 225 kts | 0° |
| 2026-04-20 19:37 | 52.36237 | 20.38098 | 2973 ft | 214 kts | 0° |
| 2026-04-20 19:37 | 52.37658 | 20.37916 | 2979 ft | 196 kts | 1° |
| 2026-04-20 19:37 | 52.38965 | 20.37748 | 2964 ft | 180 kts | 1° |
| 2026-04-20 19:38 | 52.40178 | 20.37594 | 2979 ft | 173 kts | 1° |
| 2026-04-20 19:38 | 52.41370 | 20.37533 | 2964 ft | 168 kts | 16° |
| 2026-04-20 19:38 | 52.42298 | 20.38469 | 2996 ft | 156 kts | 57° |
| 2026-04-20 19:38 | 52.42723 | 20.40091 | 2995 ft | 156 kts | 76° |
| 2026-04-20 19:39 | 52.42960 | 20.41853 | 2965 ft | 160 kts | 80° |
| 2026-04-20 19:39 | 52.43143 | 20.43666 | 2805 ft | 162 kts | 81° |
| 2026-04-20 19:39 | 52.43313 | 20.45476 | 2582 ft | 160 kts | 81° |
| 2026-04-20 19:39 | 52.43471 | 20.47236 | 2375 ft | 156 kts | 82° |
| 2026-04-20 19:40 | 52.43628 | 20.48959 | 2147 ft | 148 kts | 82° |
| 2026-04-20 19:40 | 52.43774 | 20.50555 | 1968 ft | 134 kts | 81° |
| 2026-04-20 19:40 | 52.43917 | 20.52104 | 1772 ft | 140 kts | 81° |
| 2026-04-20 19:40 | 52.44059 | 20.53660 | 1579 ft | 138 kts | 81° |
| 2026-04-20 19:41 | 52.44201 | 20.55197 | 1388 ft | 134 kts | 81° |
| 2026-04-20 19:41 | 52.44341 | 20.56728 | 1196 ft | 138 kts | 81° |
| 2026-04-20 19:41 | 52.44487 | 20.58297 | 1009 ft | 141 kts | 80° |
| 2026-04-20 19:41 | 52.44633 | 20.59891 | 809 ft | 142 kts | 80° |
| 2026-04-20 19:42 | 52.44781 | 20.61486 | 631 ft | 142 kts | 80° |
| 2026-04-20 19:42 | 52.44926 | 20.63092 | 427 ft | 143 kts | 79° |
| 2026-04-20 19:42 | 52.45077 | 20.64658 | 337 ft | 122 kts | 83° |
| 2026-04-20 19:42 | 52.45168 | 20.65689 | 335 ft | 61 kts | 81° |
| 2026-04-20 19:43 | 52.45176 | 20.65972 | 335 ft | 11 kts | 134° |
| 2026-04-20 19:43 | 52.45119 | 20.66017 | 337 ft | 9 kts | 160° |
| 2026-04-20 19:43 | 52.45061 | 20.66051 | 335 ft | 9 kts | 160° |
| 2026-04-20 19:43 | 52.45007 | 20.66083 | 334 ft | 8 kts | 160° |
| 2026-04-20 19:44 | 52.44952 | 20.66115 | 335 ft | 8 kts | 160° |
| 2026-04-20 19:44 | 52.44898 | 20.66127 | 336 ft | 8 kts | 193° |
| 2026-04-20 19:44 | 52.44863 | 20.66047 | 334 ft | 11 kts | 259° |
| 2026-04-20 19:44 | 52.44847 | 20.65890 | 334 ft | 16 kts | 261° |
| 2026-04-20 19:45 | 52.44830 | 20.65711 | 336 ft | 16 kts | 262° |
| 2026-04-20 19:45 | 52.44815 | 20.65538 | 337 ft | 15 kts | 262° |
| 2026-04-20 19:45 | 52.44801 | 20.65405 | 335 ft | 8 kts | 248° |
| 2026-04-20 19:45 | 52.44765 | 20.65349 | 334 ft | 7 kts | 204° |
| 2026-04-20 19:46 | 52.44752 | 20.65340 | 337 ft | 0 kts | 204° |